Time;durP1;ratioP1;P1;durP2;ratioP2;P2;SDS_P1;SDS_P2;PMS_P1;PMS_P2;Temp;Humidity;BMP_temperature;BMP_pressure;BME280_temperature;BME280_humidity;BME280_pressure;Samples;Min_cycle;Max_cycle;Signal;HPM_P1;HPM_P2
2021/03/23 00:01:18;;;;;;;13.87;8.10;;;6.60;99.90;;;;;;5072054;28;20284;-74
2021/03/23 00:03:48;;;;;;;11.37;6.50;;;6.60;99.90;;;;;;5072367;28;20202;-74
2021/03/23 00:06:18;;;;;;;10.00;7.33;;;6.60;99.90;;;;;;5071871;28;20312;-76
2021/03/23 00:08:46;;;;;;;10.53;6.17;;;6.70;99.90;;;;;;5072546;28;20217;-72
2021/03/23 00:11:15;;;;;;;12.77;6.33;;;6.60;99.90;;;;;;5071871;28;20218;-72
2021/03/23 00:13:44;;;;;;;9.83;7.30;;;6.50;99.90;;;;;;5071720;28;20605;-71
2021/03/23 00:16:12;;;;;;;8.77;6.73;;;6.50;99.90;;;;;;5072003;28;20205;-72
2021/03/23 00:18:39;;;;;;;8.60;6.10;;;6.50;99.90;;;;;;5072163;28;20213;-72
2021/03/23 00:21:08;;;;;;;17.53;7.53;;;6.50;99.90;;;;;;5071603;28;20207;-72
2021/03/23 00:23:34;;;;;;;16.13;7.70;;;6.40;99.90;;;;;;5072301;28;20214;-72
2021/03/23 00:26:01;;;;;;;12.10;7.57;;;6.30;99.90;;;;;;5071929;28;20210;-72
2021/03/23 00:28:27;;;;;;;17.17;7.87;;;6.20;99.90;;;;;;5071821;28;20206;-72
2021/03/23 00:30:55;;;;;;;13.37;8.03;;;6.30;99.90;;;;;;5071507;28;20209;-72
2021/03/23 00:33:22;;;;;;;9.87;6.67;;;6.30;99.90;;;;;;5071714;28;20291;-72
2021/03/23 00:35:53;;;;;;;15.90;6.60;;;6.40;99.90;;;;;;5071628;28;20206;-72
2021/03/23 00:38:20;;;;;;;12.73;6.87;;;6.40;99.90;;;;;;5071212;28;20213;-71
2021/03/23 00:40:47;;;;;;;13.40;7.63;;;6.30;99.90;;;;;;5071206;28;20665;-71
2021/03/23 00:43:14;;;;;;;15.53;7.90;;;6.20;99.90;;;;;;5071231;28;20210;-71
2021/03/23 00:45:43;;;;;;;15.33;8.27;;;6.20;99.90;;;;;;5071868;28;20202;-71
2021/03/23 00:48:12;;;;;;;20.30;7.90;;;6.30;99.90;;;;;;5070632;28;20233;-72
2021/03/23 00:50:40;;;;;;;11.77;6.70;;;6.40;99.90;;;;;;5071607;28;20263;-72
2021/03/23 00:53:07;;;;;;;9.73;6.10;;;6.40;99.90;;;;;;5070841;28;20238;-72
2021/03/23 00:55:35;;;;;;;11.43;6.57;;;6.40;99.90;;;;;;5071344;28;20210;-72
2021/03/23 00:58:01;;;;;;;8.17;6.47;;;6.40;99.90;;;;;;5071325;28;20207;-70
2021/03/23 01:00:29;;;;;;;13.70;7.67;;;6.30;99.90;;;;;;5071977;28;20272;-71
2021/03/23 01:02:55;;;;;;;14.13;7.53;;;6.20;99.90;;;;;;5070804;28;20210;-70
2021/03/23 01:05:31;;;;;;;10.77;6.93;;;6.10;99.90;;;;;;5071067;28;20260;-70
2021/03/23 01:07:58;;;;;;;12.60;7.10;;;6.10;99.90;;;;;;5071343;28;20202;-71
2021/03/23 01:10:26;;;;;;;12.90;8.10;;;6.00;99.90;;;;;;5070656;28;20211;-70
2021/03/23 01:12:53;;;;;;;10.27;7.13;;;6.00;99.90;;;;;;5071168;28;20249;-72
2021/03/23 01:15:24;;;;;;;12.90;6.83;;;6.10;99.90;;;;;;5070360;28;20202;-72
2021/03/23 01:17:50;;;;;;;10.03;6.43;;;6.00;99.90;;;;;;5070791;28;20210;-72
2021/03/23 01:20:18;;;;;;;11.47;6.23;;;6.00;99.90;;;;;;5070533;28;20615;-72
2021/03/23 01:22:45;;;;;;;13.07;7.53;;;6.00;99.90;;;;;;5071016;28;20202;-72
2021/03/23 01:25:13;;;;;;;11.20;7.00;;;6.00;99.90;;;;;;5070246;28;20569;-71
2021/03/23 01:27:39;;;;;;;10.83;7.37;;;6.00;99.90;;;;;;5070701;28;20260;-72
2021/03/23 01:30:10;;;;;;;10.57;6.00;;;6.00;99.90;;;;;;5070633;28;20210;-72
2021/03/23 01:32:36;;;;;;;13.70;7.10;;;6.00;99.90;;;;;;5070385;28;20280;-73
2021/03/23 01:35:04;;;;;;;12.83;7.57;;;6.00;99.90;;;;;;5070728;28;20209;-73
2021/03/23 01:37:31;;;;;;;9.10;6.30;;;5.90;99.90;;;;;;5070633;28;20206;-74
2021/03/23 01:39:57;;;;;;;13.00;7.27;;;5.80;99.90;;;;;;5071211;28;20206;-74
2021/03/23 01:42:37;;;;;;;10.50;8.00;;;5.70;99.90;;;;;;5070291;28;20213;-74
2021/03/23 01:45:31;;;;;;;11.20;6.27;;;5.70;99.90;;;;;;5070347;28;20202;-74
2021/03/23 01:48:00;;;;;;;16.57;9.23;;;5.70;99.90;;;;;;5070422;28;20210;-74
2021/03/23 01:50:27;;;;;;;9.90;5.90;;;5.80;99.90;;;;;;5070051;28;20247;-74
2021/03/23 01:52:59;;;;;;;10.30;7.00;;;5.80;99.90;;;;;;5069831;28;21439;-74
2021/03/23 01:55:26;;;;;;;14.97;7.63;;;5.80;99.90;;;;;;5068406;28;20198;-73
2021/03/23 01:57:54;;;;;;;8.63;7.10;;;5.70;99.90;;;;;;5070555;28;20697;-74
2021/03/23 02:00:23;;;;;;;12.53;7.47;;;5.70;99.90;;;;;;5069808;28;20256;-74
2021/03/23 02:02:49;;;;;;;14.57;7.17;;;5.70;99.90;;;;;;5070198;28;20202;-74
2021/03/23 02:05:24;;;;;;;11.67;6.50;;;5.70;99.90;;;;;;5070332;28;20206;-75
2021/03/23 02:07:52;;;;;;;14.00;8.63;;;5.40;99.90;;;;;;5070263;28;20205;-74
2021/03/23 02:10:19;;;;;;;15.47;9.47;;;5.20;99.90;;;;;;5070126;28;20300;-74
2021/03/23 02:12:46;;;;;;;12.47;8.70;;;5.30;99.90;;;;;;5069743;28;20291;-74
2021/03/23 02:15:14;;;;;;;11.33;8.30;;;5.50;99.90;;;;;;5069678;28;20210;-74
2021/03/23 02:17:42;;;;;;;11.07;8.10;;;5.50;99.90;;;;;;5070242;28;20673;-76
2021/03/23 02:20:12;;;;;;;16.00;7.73;;;5.50;99.90;;;;;;5069945;28;20236;-76
2021/03/23 02:22:41;;;;;;;9.93;8.07;;;5.50;99.90;;;;;;5070292;28;20210;-73
2021/03/23 02:25:11;;;;;;;9.63;7.33;;;5.40;99.90;;;;;;5069676;28;20201;-73
2021/03/23 02:27:38;;;;;;;10.93;7.53;;;5.30;99.90;;;;;;5070305;28;20224;-73
2021/03/23 02:30:08;;;;;;;10.67;7.90;;;5.10;99.90;;;;;;5069504;28;20206;-75
2021/03/23 02:32:34;;;;;;;8.30;7.30;;;5.30;99.90;;;;;;5070369;28;20320;-72
2021/03/23 02:35:01;;;;;;;11.77;6.63;;;5.30;99.90;;;;;;5070459;28;20275;-72
2021/03/23 02:37:27;;;;;;;9.97;6.93;;;5.30;99.90;;;;;;5070142;28;20217;-75
2021/03/23 02:39:54;;;;;;;10.80;7.03;;;5.10;99.90;;;;;;5070065;28;20206;-73
2021/03/23 02:42:21;;;;;;;10.77;6.53;;;5.10;99.90;;;;;;5069859;28;20267;-73
2021/03/23 02:44:48;;;;;;;12.83;8.13;;;5.10;99.90;;;;;;5070040;28;20206;-72
2021/03/23 02:47:18;;;;;;;9.30;7.47;;;5.20;99.90;;;;;;5069397;28;20210;-74
2021/03/23 02:49:45;;;;;;;9.93;7.20;;;5.30;99.90;;;;;;5070178;28;20203;-74
2021/03/23 02:52:13;;;;;;;10.00;7.40;;;5.10;99.90;;;;;;5069383;28;20775;-77
2021/03/23 02:54:40;;;;;;;14.40;7.73;;;5.10;99.90;;;;;;5069979;28;20206;-76
2021/03/23 02:57:08;;;;;;;13.03;8.07;;;5.10;99.90;;;;;;5069299;28;20225;-76
2021/03/23 02:59:35;;;;;;;10.73;7.83;;;5.10;99.90;;;;;;5069925;28;20206;-74
2021/03/23 03:02:03;;;;;;;12.50;8.10;;;5.10;99.90;;;;;;5070400;28;20210;-73
2021/03/23 03:04:29;;;;;;;9.97;7.67;;;5.00;99.90;;;;;;5073632;28;20205;-74
2021/03/23 03:06:56;;;;;;;9.80;7.47;;;4.90;99.90;;;;;;5073481;28;20632;-76
2021/03/23 03:09:22;;;;;;;10.50;8.47;;;4.80;99.90;;;;;;5073013;28;20206;-74
2021/03/23 03:11:50;;;;;;;14.20;9.30;;;4.70;99.90;;;;;;5073536;28;20213;-74
2021/03/23 03:14:17;;;;;;;12.53;8.57;;;4.90;99.90;;;;;;5072816;28;20297;-73
2021/03/23 03:16:44;;;;;;;11.17;7.47;;;5.00;99.90;;;;;;5073628;28;20233;-73
2021/03/23 03:19:10;;;;;;;12.80;8.77;;;5.10;99.90;;;;;;5072920;28;20260;-72
2021/03/23 03:21:37;;;;;;;16.47;10.57;;;5.10;99.90;;;;;;5073052;28;20206;-73
2021/03/23 03:24:04;;;;;;;12.07;8.60;;;5.00;99.90;;;;;;5073056;28;20218;-74
2021/03/23 03:26:31;;;;;;;12.03;8.13;;;4.80;99.90;;;;;;5073295;28;20202;-74
2021/03/23 03:28:57;;;;;;;12.57;7.87;;;4.90;99.90;;;;;;5073451;28;20549;-74
2021/03/23 03:31:26;;;;;;;13.03;8.47;;;5.10;99.90;;;;;;5072639;28;20587;-74
2021/03/23 03:33:55;;;;;;;11.93;8.00;;;5.10;99.90;;;;;;5072896;28;20230;-75
2021/03/23 03:36:23;;;;;;;11.87;8.73;;;5.10;99.90;;;;;;5072215;28;20556;-75
2021/03/23 03:38:50;;;;;;;9.43;8.30;;;5.00;99.90;;;;;;5072839;28;20199;-74
2021/03/23 03:41:17;;;;;;;11.80;9.00;;;4.90;99.90;;;;;;5072822;28;20628;-71
2021/03/23 03:43:44;;;;;;;11.83;9.70;;;4.90;99.90;;;;;;5072805;28;20203;-72
2021/03/23 03:46:11;;;;;;;11.53;8.50;;;4.80;99.90;;;;;;5072432;28;20564;-72
2021/03/23 03:48:38;;;;;;;13.70;9.03;;;4.90;99.90;;;;;;5072479;28;20202;-74
2021/03/23 03:51:05;;;;;;;10.73;9.07;;;4.90;99.90;;;;;;5072494;28;20210;-73
2021/03/23 03:53:32;;;;;;;11.57;8.30;;;4.90;99.90;;;;;;5072496;28;20709;-74
2021/03/23 03:55:58;;;;;;;13.37;8.80;;;4.90;99.90;;;;;;5072937;28;20677;-74
2021/03/23 03:58:25;;;;;;;15.97;8.43;;;4.80;99.90;;;;;;5072143;28;20210;-74
2021/03/23 04:00:51;;;;;;;14.33;9.10;;;4.80;99.90;;;;;;5072698;28;20206;-75
2021/03/23 04:03:22;;;;;;;15.97;10.03;;;4.90;99.90;;;;;;5071930;28;20206;-73
2021/03/23 04:05:50;;;;;;;14.13;8.93;;;4.90;99.90;;;;;;5072477;28;20248;-74
2021/03/23 04:08:19;;;;;;;14.87;9.10;;;4.90;99.90;;;;;;5072184;28;20217;-73
2021/03/23 04:10:47;;;;;;;15.23;10.13;;;4.90;99.90;;;;;;5072130;28;20245;-73
2021/03/23 04:13:13;;;;;;;14.17;10.13;;;4.80;99.90;;;;;;5071638;28;20721;-73
2021/03/23 04:15:41;;;;;;;16.67;11.00;;;4.80;99.90;;;;;;5071523;28;20560;-73
2021/03/23 04:18:09;;;;;;;12.93;9.43;;;4.50;99.90;;;;;;5071881;28;20229;-73
2021/03/23 04:20:36;;;;;;;11.20;8.83;;;4.40;99.90;;;;;;5072423;28;20206;-71
2021/03/23 04:23:04;;;;;;;12.50;9.30;;;4.50;99.90;;;;;;5071892;28;20213;-70
2021/03/23 04:25:33;;;;;;;19.73;9.60;;;4.50;99.90;;;;;;5072170;28;20214;-72
2021/03/23 04:28:00;;;;;;;13.43;9.03;;;4.50;99.90;;;;;;5072406;28;20297;-71
2021/03/23 04:30:27;;;;;;;13.80;10.40;;;4.30;99.90;;;;;;5071759;28;20212;-72
2021/03/23 04:32:56;;;;;;;12.27;9.67;;;4.30;99.90;;;;;;5072778;28;20218;-73
2021/03/23 04:35:26;;;;;;;12.43;9.50;;;4.20;99.90;;;;;;5071262;28;20256;-74
2021/03/23 04:37:53;;;;;;;15.03;9.73;;;4.40;99.90;;;;;;5071947;28;20209;-75
2021/03/23 04:40:21;;;;;;;16.93;10.73;;;4.40;99.90;;;;;;5070927;28;20213;-73
2021/03/23 04:42:48;;;;;;;17.03;10.60;;;4.40;99.90;;;;;;5071800;28;20263;-73
2021/03/23 04:45:18;;;;;;;20.67;10.43;;;4.50;99.90;;;;;;5071005;28;20735;-74
2021/03/23 04:47:45;;;;;;;16.93;11.17;;;4.40;99.90;;;;;;5071583;28;20225;-72
2021/03/23 04:50:13;;;;;;;12.90;9.30;;;4.50;99.90;;;;;;5071163;28;20210;-73
2021/03/23 04:52:40;;;;;;;13.80;10.37;;;4.50;99.90;;;;;;5071782;28;20230;-74
2021/03/23 04:55:07;;;;;;;13.57;9.90;;;4.50;99.90;;;;;;5070991;28;20214;-73
2021/03/23 04:57:34;;;;;;;16.77;9.43;;;4.50;99.90;;;;;;5071577;28;20202;-75
2021/03/23 05:00:01;;;;;;;11.30;8.93;;;4.50;99.90;;;;;;5071994;28;20206;-73
2021/03/23 05:02:27;;;;;;;12.33;10.17;;;4.50;99.90;;;;;;5071041;28;20214;-75
2021/03/23 05:04:54;;;;;;;13.87;9.87;;;4.50;99.90;;;;;;5071370;28;20232;-77
2021/03/23 05:07:20;;;;;;;16.90;10.50;;;4.60;99.90;;;;;;5071029;28;20245;-76
2021/03/23 05:09:47;;;;;;;16.40;10.30;;;4.50;99.90;;;;;;5071028;28;20202;-74
2021/03/23 05:12:14;;;;;;;15.50;10.77;;;4.50;99.90;;;;;;5071072;28;20234;-74
2021/03/23 05:14:41;;;;;;;16.83;10.93;;;4.40;99.90;;;;;;5071033;28;20674;-74
2021/03/23 05:17:09;;;;;;;14.07;10.00;;;4.50;99.90;;;;;;5070989;28;20202;-73
2021/03/23 05:19:36;;;;;;;14.90;10.20;;;4.40;99.90;;;;;;5070825;28;20621;-72
2021/03/23 05:22:02;;;;;;;16.40;11.67;;;4.30;99.90;;;;;;5071071;28;20210;-73
2021/03/23 05:24:29;;;;;;;17.33;11.57;;;4.20;99.90;;;;;;5071016;28;20566;-73
2021/03/23 05:26:56;;;;;;;15.57;12.33;;;4.30;99.90;;;;;;5070173;28;20210;-72
2021/03/23 05:29:22;;;;;;;20.67;14.90;;;4.20;99.90;;;;;;5070908;28;20206;-72
2021/03/23 05:31:50;;;;;;;26.27;21.30;;;4.20;99.90;;;;;;5070717;28;20206;-72
2021/03/23 05:34:16;;;;;;;29.37;23.63;;;4.10;99.90;;;;;;5070556;28;20449;-75
2021/03/23 05:36:44;;;;;;;31.20;27.90;;;4.00;99.90;;;;;;5070739;28;20206;-75
2021/03/23 05:39:13;;;;;;;30.97;27.83;;;3.90;99.90;;;;;;5070280;28;20649;-75
2021/03/23 05:41:46;;;;;;;32.87;26.37;;;3.80;99.90;;;;;;5070512;28;20214;-75
2021/03/23 05:44:29;;;;;;;27.70;23.90;;;3.90;99.90;;;;;;5070231;28;20218;-77
2021/03/23 05:46:56;;;;;;;25.33;20.17;;;4.10;99.90;;;;;;5070578;28;20217;-75
2021/03/23 05:49:35;;;;;;;20.27;18.30;;;4.20;99.90;;;;;;5070182;28;20210;-76
2021/03/23 05:52:09;;;;;;;18.47;16.57;;;4.10;99.90;;;;;;5070419;28;20670;-77
2021/03/23 05:54:43;;;;;;;20.83;18.07;;;4.20;99.90;;;;;;5070350;28;20202;-77
2021/03/23 05:57:20;;;;;;;21.73;18.03;;;4.10;99.90;;;;;;5070000;28;20202;-77
2021/03/23 05:59:53;;;;;;;18.77;16.77;;;4.10;99.90;;;;;;5070127;28;20627;-75
2021/03/23 06:02:32;;;;;;;20.37;14.93;;;4.10;99.90;;;;;;5069770;28;20210;-76
2021/03/23 06:05:22;;;;;;;21.37;15.07;;;4.10;99.90;;;;;;5070824;28;20201;-74
2021/03/23 06:07:49;;;;;;;18.40;14.63;;;4.00;99.90;;;;;;5069948;28;20594;-75
2021/03/23 06:10:17;;;;;;;22.37;14.10;;;4.10;99.90;;;;;;5070066;28;20206;-75
2021/03/23 06:12:51;;;;;;;16.00;14.30;;;4.20;99.90;;;;;;5070285;28;20234;-74
2021/03/23 06:15:26;;;;;;;20.60;14.57;;;4.30;99.90;;;;;;5070172;28;20210;-76
2021/03/23 06:17:59;;;;;;;16.30;13.63;;;4.30;99.90;;;;;;5070193;28;20692;-79
2021/03/23 06:20:40;;;;;;;20.47;13.77;;;4.10;99.90;;;;;;5067529;28;20670;-76
2021/03/23 06:23:54;;;;;;;14.47;12.63;;;4.10;99.90;;;;;;5066274;28;20213;-77
2021/03/23 06:26:32;;;;;;;14.73;12.17;;;4.20;99.90;;;;;;5053850;28;20212;-77
2021/03/23 06:29:06;;;;;;;13.57;11.20;;;4.50;99.90;;;;;;5068333;28;20209;-77
2021/03/23 06:32:01;;;;;;;19.30;12.33;;;4.40;99.90;;;;;;5068396;28;20202;-77
2021/03/23 06:34:31;;;;;;;19.70;11.73;;;4.40;99.90;;;;;;5069770;28;20213;-77
2021/03/23 06:37:00;;;;;;;15.53;10.97;;;4.40;99.90;;;;;;5062888;28;20562;-76
2021/03/23 06:39:30;;;;;;;15.40;10.97;;;4.50;99.90;;;;;;5073356;28;20588;-77
2021/03/23 06:42:00;;;;;;;14.37;10.73;;;4.60;99.90;;;;;;5074471;28;20293;-78
2021/03/23 06:44:30;;;;;;;16.40;10.40;;;4.80;99.90;;;;;;5073923;28;20206;-77
2021/03/23 06:46:58;;;;;;;14.13;10.30;;;5.00;99.90;;;;;;5073776;28;20218;-77
2021/03/23 06:49:30;;;;;;;13.10;9.73;;;5.00;99.90;;;;;;5073701;28;20214;-77
2021/03/23 06:52:20;;;;;;;14.80;10.30;;;5.20;99.90;;;;;;5073735;28;20206;-77
2021/03/23 06:55:21;;;;;;;15.73;11.00;;;5.10;99.90;;;;;;5070979;28;20251;-77
2021/03/23 06:57:48;;;;;;;18.20;11.80;;;5.10;99.90;;;;;;5068968;28;20255;-77
2021/03/23 07:00:25;;;;;;;17.57;11.27;;;5.40;99.90;;;;;;5070715;28;20211;-77
2021/03/23 07:02:54;;;;;;;15.67;11.00;;;5.80;99.90;;;;;;5072250;28;20213;-77
2021/03/23 07:05:35;;;;;;;15.57;12.83;;;6.20;99.90;;;;;;5073200;28;20205;-76
2021/03/23 07:08:16;;;;;;;17.23;12.87;;;6.10;99.90;;;;;;5073208;28;20205;-76
2021/03/23 07:10:44;;;;;;;18.17;12.37;;;6.10;99.90;;;;;;5072259;28;20253;-75
2021/03/23 07:13:31;;;;;;;20.17;12.57;;;6.20;99.90;;;;;;5066100;28;20226;-75
2021/03/23 07:16:01;;;;;;;13.87;11.33;;;6.00;99.90;;;;;;5068278;28;20621;-75
2021/03/23 07:18:30;;;;;;;15.60;11.60;;;6.00;99.90;;;;;;5072516;28;20210;-76
2021/03/23 07:21:02;;;;;;;20.83;12.00;;;6.10;99.90;;;;;;5071652;28;20293;-75
2021/03/23 07:23:32;;;;;;;14.20;11.30;;;6.10;99.90;;;;;;5072821;28;20305;-75
2021/03/23 07:26:16;;;;;;;13.77;11.07;;;6.40;99.90;;;;;;5071426;28;20674;-76
2021/03/23 07:28:43;;;;;;;13.97;11.20;;;6.40;99.90;;;;;;5070823;28;20205;-76
2021/03/23 07:31:15;;;;;;;18.70;11.13;;;6.30;99.90;;;;;;5072292;28;20241;-76
2021/03/23 07:34:02;;;;;;;16.93;12.63;;;6.30;99.90;;;;;;5070224;28;20275;-75
2021/03/23 07:36:36;;;;;;;20.23;12.20;;;6.50;99.90;;;;;;5069678;28;20200;-76
2021/03/23 07:39:08;;;;;;;19.83;14.73;;;6.50;99.90;;;;;;5070774;28;20662;-76
2021/03/23 07:41:41;;;;;;;16.87;11.40;;;6.60;99.90;;;;;;5071980;28;20202;-78
2021/03/23 07:44:19;;;;;;;16.30;12.17;;;6.90;99.90;;;;;;5071552;28;20202;-75
2021/03/23 07:46:48;;;;;;;15.93;11.13;;;7.00;99.90;;;;;;5069748;28;20222;-76
2021/03/23 07:49:34;;;;;;;14.00;9.50;;;7.10;99.90;;;;;;5069516;28;20217;-76
2021/03/23 07:52:09;;;;;;;16.13;11.17;;;6.90;99.90;;;;;;5072120;28;20229;-76
2021/03/23 07:54:37;;;;;;;20.10;12.80;;;6.90;99.90;;;;;;5071430;28;20289;-77
2021/03/23 07:57:31;;;;;;;16.40;10.47;;;6.90;99.90;;;;;;5069712;28;20198;-76
2021/03/23 08:00:22;;;;;;;12.47;10.07;;;7.00;99.90;;;;;;5068506;28;20202;-77
2021/03/23 08:03:01;;;;;;;21.87;15.10;;;7.10;99.90;;;;;;5067254;28;20315;-77
2021/03/23 08:05:38;;;;;;;14.40;11.23;;;7.20;99.90;;;;;;5071661;28;20206;-77
2021/03/23 08:08:33;;;;;;;12.80;10.00;;;7.30;99.90;;;;;;5071379;28;20202;-77
2021/03/23 08:11:09;;;;;;;19.40;11.23;;;8.20;99.90;;;;;;5069202;28;20238;-77
2021/03/23 08:13:54;;;;;;;21.53;10.90;;;8.40;99.90;;;;;;5072181;28;20279;-77
2021/03/23 08:16:38;;;;;;;14.10;12.27;;;8.20;99.90;;;;;;5067680;28;20203;-77
2021/03/23 08:19:40;;;;;;;17.83;11.97;;;9.40;99.90;;;;;;5068214;28;20702;-78
2021/03/23 08:22:44;;;;;;;19.00;10.37;;;10.00;99.90;;;;;;5063078;28;20685;-78
2021/03/23 08:25:20;;;;;;;16.30;11.23;;;10.30;99.90;;;;;;5062342;28;20255;-77
2021/03/23 08:28:13;;;;;;;17.47;10.90;;;9.00;99.90;;;;;;5066147;28;20212;-74
2021/03/23 08:30:52;;;;;;;16.33;10.60;;;8.80;99.90;;;;;;5068925;28;20210;-76
2021/03/23 08:33:46;;;;;;;13.00;10.83;;;8.80;99.90;;;;;;5068836;28;20268;-75
2021/03/23 08:36:24;;;;;;;22.93;11.93;;;8.80;99.90;;;;;;5063821;28;20206;-77
2021/03/23 08:39:05;;;;;;;13.87;9.60;;;8.50;99.90;;;;;;5065794;28;20247;-76
2021/03/23 08:41:48;;;;;;;14.30;9.10;;;8.80;99.90;;;;;;5064423;28;20205;-76
2021/03/23 08:44:25;;;;;;;13.90;9.03;;;9.80;99.90;;;;;;5070588;28;20209;-77
2021/03/23 08:46:53;;;;;;;13.77;8.87;;;10.20;99.90;;;;;;5069919;28;20607;-76
2021/03/23 08:49:21;;;;;;;12.20;9.33;;;10.50;99.90;;;;;;5070097;28;20240;-76
2021/03/23 08:51:48;;;;;;;15.57;9.47;;;11.30;99.90;;;;;;5071613;28;20210;-76
2021/03/23 08:54:45;;;;;;;15.93;9.13;;;10.70;99.90;;;;;;5070175;28;20236;-75
2021/03/23 08:57:13;;;;;;;11.70;8.73;;;10.30;99.90;;;;;;5070784;28;20666;-75
2021/03/23 08:59:51;;;;;;;19.97;11.13;;;10.20;99.90;;;;;;5065879;28;20702;-77
2021/03/23 09:02:50;;;;;;;16.40;9.43;;;11.30;99.90;;;;;;5070261;28;20214;-80
2021/03/23 09:05:55;;;;;;;15.00;10.60;;;13.50;99.90;;;;;;5069420;28;20206;-76
2021/03/23 09:08:36;;;;;;;14.93;8.87;;;12.40;99.90;;;;;;5058734;28;20678;-77
2021/03/23 09:11:06;;;;;;;15.73;10.43;;;12.30;99.90;;;;;;5070314;28;20289;-77
2021/03/23 09:14:14;;;;;;;16.57;9.80;;;14.90;99.90;;;;;;5071115;28;20237;-77
2021/03/23 09:17:05;;;;;;;12.77;9.80;;;14.80;99.90;;;;;;5058351;28;20300;-78
2021/03/23 09:19:42;;;;;;;13.05;9.23;;;13.90;99.90;;;;;;5060218;28;20206;-78
2021/03/23 09:22:26;;;;;;;14.82;9.73;;;14.40;99.90;;;;;;5070609;28;20205;-78
2021/03/23 09:25:21;;;;;;;13.02;8.07;;;16.40;99.90;;;;;;5069513;28;20198;-78
2021/03/23 09:28:03;;;;;;;10.10;6.57;;;19.90;99.90;;;;;;5070832;28;20304;-75
2021/03/23 09:30:52;;;;;;;8.23;6.18;;;20.90;99.90;;;;;;5068391;28;20205;-76
2021/03/23 09:33:36;;;;;;;12.75;6.47;;;21.60;99.90;;;;;;5068692;28;20245;-76
2021/03/23 09:36:47;;;;;;;10.00;5.60;;;22.20;99.90;;;;;;5069930;28;20560;-76
2021/03/23 09:39:38;;;;;;;10.98;6.55;;;22.20;99.90;;;;;;5061191;28;20293;-76
2021/03/23 09:42:25;;;;;;;10.82;5.93;;;22.30;99.90;;;;;;5065985;28;20666;-76
2021/03/23 09:45:33;;;;;;;8.15;5.78;;;21.20;99.90;;;;;;5070127;28;20222;-75
2021/03/23 09:48:30;;;;;;;10.82;5.85;;;21.60;99.90;;;;;;5071321;28;20209;-76
2021/03/23 09:51:04;;;;;;;10.00;6.05;;;19.10;99.90;;;;;;5064696;28;20207;-76
2021/03/23 09:53:35;;;;;;;12.93;6.53;;;15.20;99.90;;;;;;5066884;28;20224;-76
2021/03/23 09:56:07;;;;;;;14.18;7.28;;;15.90;99.90;;;;;;5070600;28;20256;-75
2021/03/23 09:58:35;;;;;;;8.77;5.82;;;19.40;99.90;;;;;;5070408;28;20206;-76
2021/03/23 10:01:17;;;;;;;7.18;6.00;;;21.50;99.90;;;;;;5070775;28;20206;-76
2021/03/23 10:03:45;;;;;;;11.55;6.50;;;21.00;99.90;;;;;;5070125;28;20701;-76
2021/03/23 10:06:15;;;;;;;10.88;6.75;;;18.60;99.90;;;;;;5069521;28;20602;-75
2021/03/23 10:09:00;;;;;;;11.50;5.95;;;18.30;99.90;;;;;;5069674;28;20206;-75
2021/03/23 10:11:29;;;;;;;10.27;5.90;;;19.70;99.90;;;;;;5070001;28;20258;-75
2021/03/23 10:13:58;;;;;;;7.95;5.45;;;21.10;99.90;;;;;;5069781;28;20236;-75
2021/03/23 10:16:29;;;;;;;11.57;5.50;;;22.20;99.90;;;;;;5069078;28;20203;-75
2021/03/23 10:19:00;;;;;;;10.07;5.63;;;22.10;99.90;;;;;;5070186;28;20584;-76
2021/03/23 10:21:31;;;;;;;9.85;5.90;;;21.80;99.90;;;;;;5068818;28;20203;-77
2021/03/23 10:24:00;;;;;;;11.40;5.80;;;22.30;99.90;;;;;;5070499;28;20212;-76
2021/03/23 10:26:34;;;;;;;12.32;5.60;;;23.10;99.90;;;;;;5066272;28;20587;-77
2021/03/23 10:29:12;;;;;;;9.73;6.40;;;23.20;99.90;;;;;;5063077;28;20209;-76
2021/03/23 10:31:41;;;;;;;10.10;5.45;;;22.00;99.90;;;;;;5068573;28;20198;-76
2021/03/23 10:34:10;;;;;;;8.13;4.88;;;22.60;99.90;;;;;;5068114;28;20238;-76
2021/03/23 10:36:50;;;;;;;8.20;4.40;;;21.50;99.90;;;;;;5066558;28;20202;-76
2021/03/23 10:39:32;;;;;;;8.68;5.85;;;16.20;99.90;;;;;;5067566;28;20202;-77
2021/03/23 10:42:00;;;;;;;8.40;4.43;;;13.40;99.90;;;;;;5069474;28;20202;-76
2021/03/23 10:44:29;;;;;;;9.60;5.07;;;13.20;99.90;;;;;;5069683;28;20301;-77
2021/03/23 10:46:57;;;;;;;9.20;4.53;;;13.50;99.90;;;;;;5068941;28;20639;-76
2021/03/23 10:49:29;;;;;;;11.38;5.07;;;13.70;99.90;;;;;;5069582;28;20210;-78
2021/03/23 10:51:58;;;;;;;12.15;6.10;;;13.40;99.90;;;;;;5069482;28;20198;-75
2021/03/23 10:54:28;;;;;;;6.03;3.80;;;13.40;99.90;;;;;;5068566;28;20272;-76
2021/03/23 10:56:57;;;;;;;8.10;4.18;;;13.50;99.90;;;;;;5069221;28;20202;-77
2021/03/23 10:59:33;;;;;;;7.93;4.45;;;13.60;99.90;;;;;;5069091;28;20210;-77
2021/03/23 11:02:05;;;;;;;8.93;4.40;;;13.70;99.90;;;;;;5069526;28;20198;-77
2021/03/23 11:04:33;;;;;;;11.13;4.15;;;13.40;99.90;;;;;;5069163;28;20252;-76
2021/03/23 11:07:19;;;;;;;10.82;4.72;;;13.10;99.90;;;;;;5069604;28;20206;-76
2021/03/23 11:09:46;;;;;;;9.68;3.78;;;12.90;99.90;;;;;;5056952;28;20697;-76
2021/03/23 11:12:13;;;;;;;7.63;3.42;;;13.00;99.90;;;;;;5069049;28;20210;-77
2021/03/23 11:14:40;;;;;;;7.25;3.15;;;13.20;99.90;;;;;;5069428;28;20233;-77
2021/03/23 11:17:11;;;;;;;7.18;3.45;;;13.40;99.90;;;;;;5069453;28;20213;-76
2021/03/23 11:19:41;;;;;;;11.75;4.00;;;13.20;99.90;;;;;;5069488;28;20198;-77
2021/03/23 11:22:11;;;;;;;9.13;4.30;;;13.10;99.90;;;;;;5069194;28;20252;-77
2021/03/23 11:24:39;;;;;;;8.60;4.20;;;13.30;99.90;;;;;;5070396;28;20297;-77
2021/03/23 11:27:07;;;;;;;9.80;4.38;;;13.40;99.90;;;;;;5072416;28;20285;-77
2021/03/23 11:29:34;;;;;;;10.20;4.10;;;13.70;99.90;;;;;;5072063;28;20229;-77
2021/03/23 11:32:00;;;;;;;6.57;3.55;;;13.90;99.90;;;;;;5073303;28;20202;-77
2021/03/23 11:34:27;;;;;;;10.25;4.35;;;13.80;99.90;;;;;;5072380;28;20234;-77
2021/03/23 11:36:54;;;;;;;7.47;3.30;;;13.40;99.90;;;;;;5071427;28;20198;-77
2021/03/23 11:39:20;;;;;;;3.78;3.25;;;13.80;99.90;;;;;;5070888;28;20213;-78
2021/03/23 11:42:00;;;;;;;6.20;3.03;;;14.10;99.90;;;;;;5072232;28;20202;-78
2021/03/23 11:44:32;;;;;;;4.28;3.13;;;13.80;99.90;;;;;;5072561;28;20205;-77
2021/03/23 11:47:10;;;;;;;7.03;3.97;;;13.90;99.90;;;;;;5072656;28;20567;-76
2021/03/23 11:50:05;;;;;;;7.82;3.22;;;14.20;99.90;;;;;;5072478;28;20233;-77
2021/03/23 11:52:32;;;;;;;7.45;2.97;;;14.20;99.90;;;;;;5064277;28;20762;-77
2021/03/23 11:55:02;;;;;;;4.68;3.00;;;14.20;99.90;;;;;;5072503;28;20228;-75
2021/03/23 11:57:30;;;;;;;8.15;3.05;;;14.00;99.90;;;;;;5071360;28;20252;-77
2021/03/23 11:59:57;;;;;;;5.78;3.33;;;14.10;99.90;;;;;;5071949;28;20218;-77
2021/03/23 12:02:27;;;;;;;7.53;3.05;;;14.30;99.90;;;;;;5071734;28;20735;-77
2021/03/23 12:05:00;;;;;;;5.45;3.03;;;14.10;99.90;;;;;;5072890;28;20217;-77
2021/03/23 12:07:40;;;;;;;8.98;3.22;;;13.90;99.90;;;;;;5071171;28;20744;-79
2021/03/23 12:10:13;;;;;;;10.13;4.22;;;14.00;99.90;;;;;;5064575;28;20198;-78
2021/03/23 12:12:45;;;;;;;6.25;3.17;;;14.10;99.90;;;;;;5072006;28;20209;-80
2021/03/23 12:15:19;;;;;;;10.23;4.60;;;14.00;99.90;;;;;;5070145;28;20289;-76
2021/03/23 12:17:48;;;;;;;9.48;3.72;;;14.30;99.90;;;;;;5068652;28;20209;-77
2021/03/23 12:20:20;;;;;;;7.28;3.22;;;14.30;99.90;;;;;;5070391;28;20225;-76
2021/03/23 12:22:49;;;;;;;6.35;2.63;;;14.30;99.90;;;;;;5071702;28;20756;-76
2021/03/23 12:25:17;;;;;;;5.88;3.60;;;14.50;99.90;;;;;;5071173;28;20293;-74
2021/03/23 12:27:45;;;;;;;6.18;3.05;;;14.00;99.90;;;;;;5071895;28;20713;-79
2021/03/23 12:30:13;;;;;;;5.15;2.95;;;14.40;99.90;;;;;;5071823;28;20205;-77
2021/03/23 12:32:41;;;;;;;6.30;3.80;;;14.40;99.90;;;;;;5071970;28;20199;-78
2021/03/23 12:35:11;;;;;;;6.38;3.13;;;14.50;99.90;;;;;;5070942;28;20202;-82
2021/03/23 12:37:39;;;;;;;11.15;3.55;;;14.50;99.90;;;;;;5071669;28;20210;-78
2021/03/23 12:40:07;;;;;;;4.68;2.92;;;14.40;99.90;;;;;;5071227;28;20209;-77
2021/03/23 12:42:36;;;;;;;6.53;3.47;;;14.60;99.90;;;;;;5071521;28;20206;-76
2021/03/23 12:45:05;;;;;;;7.28;3.50;;;15.10;99.90;;;;;;5071669;28;20537;-76
2021/03/23 12:47:32;;;;;;;5.78;3.17;;;15.30;99.90;;;;;;5071762;28;20221;-76
2021/03/23 12:49:59;;;;;;;14.10;3.20;;;15.60;99.90;;;;;;5071693;28;20560;-77
2021/03/23 12:52:25;;;;;;;8.48;3.38;;;15.30;99.90;;;;;;5070863;28;20210;-78
2021/03/23 12:54:55;;;;;;;6.75;3.67;;;15.00;99.90;;;;;;5071452;28;20234;-78
2021/03/23 12:57:23;;;;;;;7.25;3.17;;;15.00;99.90;;;;;;5064068;28;20557;-77
2021/03/23 12:59:51;;;;;;;3.60;2.63;;;14.90;99.90;;;;;;5065758;28;20249;-78
2021/03/23 13:02:21;;;;;;;5.60;2.75;;;15.00;99.90;;;;;;5068871;28;20613;-77
2021/03/23 13:04:47;;;;;;;4.45;3.65;;;15.00;99.90;;;;;;5071432;28;20293;-77
2021/03/23 13:07:18;;;;;;;11.35;3.97;;;15.30;99.90;;;;;;5070878;28;20211;-78
2021/03/23 13:09:44;;;;;;;12.18;3.17;;;15.10;99.90;;;;;;5057415;28;20297;-79